N62ET KJAN-KATL
Flight info
| Callsign | N62ET |
|---|---|
| Flight time | 1h 43m |
| Altitude | 9000 |
| Route | REECO MERDN ORRKK HOBTT3 |
| Aircraft | DA62/L-SDFGRY/C |
Departure
| Time | 2026-05-04 14:30 |
|---|---|
| Airport | Jackson-Medgar Wiley Evers International Airport (KJAN) |
Arrival
| Time | 2026-05-04 16:13 |
|---|---|
| Airport | Hartsfield Jackson Atlanta International Airport (KATL) |
| Time | Latitude | Longitude | Altitude | Speed | Heading |
|---|---|---|---|---|---|
| 2026-05-04 14:13 | 32.30779 | -90.07204 | 331 ft | 0 kts | 85° |
| 2026-05-04 14:22 | 32.30780 | -90.07198 | 331 ft | 2 kts | 73° |
| 2026-05-04 14:22 | 32.30819 | -90.07160 | 332 ft | 11 kts | 33° |
| 2026-05-04 14:22 | 32.30800 | -90.07069 | 332 ft | 18 kts | 158° |
| 2026-05-04 14:22 | 32.30673 | -90.07008 | 335 ft | 19 kts | 159° |
| 2026-05-04 14:23 | 32.30595 | -90.06887 | 336 ft | 0 kts | 71° |
| 2026-05-04 14:28 | 32.30608 | -90.06844 | 337 ft | 11 kts | 69° |
| 2026-05-04 14:28 | 32.30669 | -90.06761 | 338 ft | 13 kts | 33° |
| 2026-05-04 14:29 | 32.30810 | -90.06816 | 336 ft | 48 kts | 337° |
| 2026-05-04 14:29 | 32.31840 | -90.07287 | 447 ft | 90 kts | 337° |
| 2026-05-04 14:30 | 32.32428 | -90.07578 | 609 ft | 92 kts | 334° |
| 2026-05-04 14:30 | 32.33038 | -90.07855 | 759 ft | 101 kts | 339° |
| 2026-05-04 14:30 | 32.34388 | -90.08435 | 1396 ft | 102 kts | 339° |
| 2026-05-04 14:31 | 32.35087 | -90.08382 | 1806 ft | 109 kts | 25° |
| 2026-05-04 14:31 | 32.35653 | -90.06845 | 2609 ft | 111 kts | 104° |
| 2026-05-04 14:32 | 32.35363 | -90.05008 | 3315 ft | 115 kts | 99° |
| 2026-05-04 14:32 | 32.35284 | -90.04056 | 3565 ft | 117 kts | 96° |
| 2026-05-04 14:32 | 32.35245 | -90.03095 | 3982 ft | 119 kts | 93° |
| 2026-05-04 14:32 | 32.35233 | -90.02127 | 4328 ft | 119 kts | 91° |
| 2026-05-04 14:33 | 32.35239 | -90.01129 | 4726 ft | 122 kts | 90° |
| 2026-05-04 14:33 | 32.35263 | -90.00137 | 5124 ft | 122 kts | 89° |
| 2026-05-04 14:33 | 32.35299 | -89.99135 | 5501 ft | 125 kts | 88° |
| 2026-05-04 14:33 | 32.35343 | -89.98116 | 6024 ft | 125 kts | 88° |
| 2026-05-04 14:34 | 32.35394 | -89.97077 | 6281 ft | 129 kts | 87° |
| 2026-05-04 14:34 | 32.35451 | -89.96029 | 6719 ft | 128 kts | 88° |
| 2026-05-04 14:34 | 32.35508 | -89.94959 | 6976 ft | 129 kts | 86° |
| 2026-05-04 14:34 | 32.35569 | -89.93890 | 7274 ft | 133 kts | 86° |
| 2026-05-04 14:35 | 32.35633 | -89.92814 | 7710 ft | 132 kts | 85° |
| 2026-05-04 14:35 | 32.35699 | -89.91721 | 8079 ft | 131 kts | 85° |
| 2026-05-04 14:35 | 32.35764 | -89.90626 | 8445 ft | 132 kts | 85° |
| 2026-05-04 14:35 | 32.35832 | -89.89522 | 8750 ft | 136 kts | 85° |
| 2026-05-04 14:36 | 32.35901 | -89.88395 | 8982 ft | 145 kts | 84° |
| 2026-05-04 14:36 | 32.35979 | -89.87105 | 9047 ft | 170 kts | 84° |
| 2026-05-04 14:36 | 32.36070 | -89.85642 | 9019 ft | 185 kts | 85° |
| 2026-05-04 14:36 | 32.36167 | -89.84026 | 8993 ft | 195 kts | 85° |
| 2026-05-04 14:37 | 32.36268 | -89.82367 | 9001 ft | 201 kts | 85° |
| 2026-05-04 14:37 | 32.36372 | -89.80670 | 8911 ft | 203 kts | 85° |
| 2026-05-04 14:37 | 32.36474 | -89.78957 | 9012 ft | 208 kts | 85° |
| 2026-05-04 14:37 | 32.36580 | -89.77252 | 8989 ft | 212 kts | 85° |
| 2026-05-04 14:38 | 32.36686 | -89.75453 | 9030 ft | 212 kts | 85° |
| 2026-05-04 14:38 | 32.36796 | -89.73698 | 9057 ft | 210 kts | 85° |
| 2026-05-04 14:38 | 32.36903 | -89.71941 | 8988 ft | 212 kts | 85° |
| 2026-05-04 14:38 | 32.37004 | -89.70217 | 8932 ft | 206 kts | 85° |
| 2026-05-04 14:39 | 32.37104 | -89.68540 | 9051 ft | 200 kts | 85° |
| 2026-05-04 14:39 | 32.37203 | -89.66893 | 8991 ft | 201 kts | 85° |
| 2026-05-04 14:39 | 32.37301 | -89.65222 | 9106 ft | 199 kts | 85° |
| 2026-05-04 14:40 | 32.37477 | -89.61853 | 9121 ft | 204 kts | 88° |
| 2026-05-04 14:40 | 32.37506 | -89.60119 | 9009 ft | 208 kts | 88° |
| 2026-05-04 14:40 | 32.37522 | -89.58424 | 9034 ft | 207 kts | 89° |
| 2026-05-04 14:40 | 32.37537 | -89.56722 | 9096 ft | 205 kts | 89° |
| 2026-05-04 14:41 | 32.37544 | -89.55034 | 8982 ft | 199 kts | 89° |
| 2026-05-04 14:41 | 32.37557 | -89.53418 | 9050 ft | 199 kts | 89° |
| 2026-05-04 14:41 | 32.37579 | -89.50142 | 8970 ft | 195 kts | 89° |
| 2026-05-04 14:42 | 32.37599 | -89.46928 | 8984 ft | 196 kts | 89° |
| 2026-05-04 14:42 | 32.37608 | -89.45322 | 8988 ft | 194 kts | 90° |
| 2026-05-04 14:42 | 32.37620 | -89.43710 | 8988 ft | 195 kts | 89° |
| 2026-05-04 14:43 | 32.37630 | -89.42116 | 8988 ft | 198 kts | 89° |
| 2026-05-04 14:43 | 32.37641 | -89.40501 | 8971 ft | 195 kts | 89° |
| 2026-05-04 14:43 | 32.37647 | -89.38906 | 8996 ft | 194 kts | 89° |
| 2026-05-04 14:43 | 32.37657 | -89.37302 | 9000 ft | 194 kts | 89° |
| 2026-05-04 14:44 | 32.37664 | -89.35715 | 9098 ft | 192 kts | 89° |
| 2026-05-04 14:44 | 32.37675 | -89.34095 | 8991 ft | 196 kts | 90° |
| 2026-05-04 14:44 | 32.37684 | -89.32484 | 8970 ft | 194 kts | 90° |
| 2026-05-04 14:44 | 32.37692 | -89.30905 | 8968 ft | 192 kts | 90° |
| 2026-05-04 14:45 | 32.37700 | -89.29328 | 8969 ft | 190 kts | 90° |
| 2026-05-04 14:45 | 32.37707 | -89.27756 | 8970 ft | 190 kts | 90° |
| 2026-05-04 14:45 | 32.37715 | -89.26203 | 8971 ft | 191 kts | 90° |
| 2026-05-04 14:45 | 32.37722 | -89.24598 | 8971 ft | 191 kts | 90° |
| 2026-05-04 14:46 | 32.37729 | -89.23029 | 8971 ft | 191 kts | 90° |
| 2026-05-04 14:46 | 32.37736 | -89.21443 | 8971 ft | 191 kts | 90° |
| 2026-05-04 14:46 | 32.37742 | -89.19862 | 8971 ft | 191 kts | 90° |
| 2026-05-04 14:46 | 32.37749 | -89.18295 | 8971 ft | 191 kts | 90° |
| 2026-05-04 14:47 | 32.37755 | -89.16720 | 8971 ft | 191 kts | 90° |
| 2026-05-04 14:47 | 32.37761 | -89.15133 | 8971 ft | 191 kts | 90° |
| 2026-05-04 14:47 | 32.37767 | -89.13557 | 8971 ft | 191 kts | 90° |
| 2026-05-04 14:47 | 32.37772 | -89.11973 | 8971 ft | 191 kts | 90° |
| 2026-05-04 14:48 | 32.37778 | -89.10389 | 8972 ft | 191 kts | 90° |
| 2026-05-04 14:48 | 32.37783 | -89.08822 | 8971 ft | 191 kts | 90° |
| 2026-05-04 14:48 | 32.37788 | -89.07250 | 8972 ft | 191 kts | 90° |
| 2026-05-04 14:48 | 32.37793 | -89.05663 | 8972 ft | 191 kts | 90° |
| 2026-05-04 14:49 | 32.37797 | -89.04078 | 8972 ft | 191 kts | 90° |
| 2026-05-04 14:49 | 32.37802 | -89.02512 | 8972 ft | 191 kts | 90° |
| 2026-05-04 14:49 | 32.37806 | -89.00944 | 8972 ft | 191 kts | 90° |
| 2026-05-04 14:49 | 32.37810 | -88.99364 | 8972 ft | 191 kts | 90° |
| 2026-05-04 14:50 | 32.37814 | -88.97791 | 8972 ft | 191 kts | 90° |
| 2026-05-04 14:50 | 32.37817 | -88.96204 | 8972 ft | 191 kts | 90° |
| 2026-05-04 14:50 | 32.37821 | -88.94608 | 8972 ft | 191 kts | 90° |
| 2026-05-04 14:50 | 32.37824 | -88.93047 | 8972 ft | 192 kts | 90° |
| 2026-05-04 14:51 | 32.37827 | -88.91473 | 8973 ft | 192 kts | 90° |
| 2026-05-04 14:51 | 32.37830 | -88.89885 | 8972 ft | 192 kts | 90° |
| 2026-05-04 14:51 | 32.37833 | -88.88316 | 8973 ft | 192 kts | 90° |
| 2026-05-04 14:51 | 32.37835 | -88.86717 | 8973 ft | 192 kts | 90° |
| 2026-05-04 14:52 | 32.37837 | -88.85145 | 8973 ft | 192 kts | 90° |
| 2026-05-04 14:52 | 32.37839 | -88.83553 | 8973 ft | 192 kts | 90° |
| 2026-05-04 14:52 | 32.37841 | -88.81974 | 8973 ft | 192 kts | 90° |
| 2026-05-04 14:52 | 32.37918 | -88.80402 | 8971 ft | 191 kts | 79° |
| 2026-05-04 14:53 | 32.38170 | -88.78865 | 8973 ft | 191 kts | 77° |
| 2026-05-04 14:53 | 32.38456 | -88.77311 | 8973 ft | 191 kts | 76° |
| 2026-05-04 14:53 | 32.38746 | -88.75783 | 8973 ft | 191 kts | 76° |
| 2026-05-04 14:53 | 32.39039 | -88.74252 | 8973 ft | 191 kts | 76° |
| 2026-05-04 14:54 | 32.39332 | -88.72726 | 8973 ft | 191 kts | 76° |
| 2026-05-04 14:54 | 32.39630 | -88.71180 | 8974 ft | 191 kts | 76° |
| 2026-05-04 14:54 | 32.39925 | -88.69649 | 8973 ft | 191 kts | 76° |
| 2026-05-04 14:54 | 32.40219 | -88.68123 | 8974 ft | 191 kts | 76° |
| 2026-05-04 14:55 | 32.40518 | -88.66573 | 8974 ft | 191 kts | 76° |
| 2026-05-04 14:55 | 32.40812 | -88.65043 | 8974 ft | 191 kts | 76° |
| 2026-05-04 14:55 | 32.41105 | -88.63521 | 8974 ft | 191 kts | 76° |
| 2026-05-04 14:55 | 32.41401 | -88.61985 | 8974 ft | 191 kts | 76° |
| 2026-05-04 14:56 | 32.41696 | -88.60448 | 8974 ft | 191 kts | 76° |
| 2026-05-04 14:56 | 32.41991 | -88.58912 | 8974 ft | 191 kts | 76° |
| 2026-05-04 14:56 | 32.42288 | -88.57368 | 8974 ft | 192 kts | 76° |
| 2026-05-04 14:56 | 32.42583 | -88.55827 | 8974 ft | 192 kts | 76° |
| 2026-05-04 14:57 | 32.42877 | -88.54295 | 8974 ft | 192 kts | 76° |
| 2026-05-04 14:57 | 32.43171 | -88.52763 | 8974 ft | 192 kts | 76° |
| 2026-05-04 14:57 | 32.43469 | -88.51208 | 8974 ft | 192 kts | 76° |
| 2026-05-04 14:57 | 32.43759 | -88.49687 | 8975 ft | 192 kts | 76° |
| 2026-05-04 14:58 | 32.44054 | -88.48143 | 8975 ft | 192 kts | 76° |
| 2026-05-04 14:58 | 32.44349 | -88.46603 | 8975 ft | 192 kts | 76° |
| 2026-05-04 14:58 | 32.44642 | -88.45071 | 8975 ft | 192 kts | 76° |
| 2026-05-04 14:58 | 32.44938 | -88.43518 | 8975 ft | 192 kts | 76° |
| 2026-05-04 14:59 | 32.45232 | -88.41976 | 8975 ft | 192 kts | 76° |
| 2026-05-04 14:59 | 32.45510 | -88.40447 | 8964 ft | 190 kts | 73° |
| 2026-05-04 14:59 | 32.46094 | -88.37405 | 9038 ft | 188 kts | 72° |
| 2026-05-04 15:00 | 32.46387 | -88.35895 | 9035 ft | 193 kts | 72° |
| 2026-05-04 15:00 | 32.46703 | -88.34249 | 8952 ft | 201 kts | 73° |
| 2026-05-04 15:00 | 32.47013 | -88.32626 | 9075 ft | 199 kts | 74° |
| 2026-05-04 15:01 | 32.47610 | -88.29444 | 9084 ft | 194 kts | 73° |
| 2026-05-04 15:01 | 32.47910 | -88.27854 | 9100 ft | 201 kts | 73° |
| 2026-05-04 15:01 | 32.48222 | -88.26208 | 9238 ft | 200 kts | 73° |
| 2026-05-04 15:01 | 32.48537 | -88.24553 | 9013 ft | 210 kts | 73° |
| 2026-05-04 15:02 | 32.48864 | -88.22881 | 9079 ft | 208 kts | 74° |
| 2026-05-04 15:02 | 32.49168 | -88.21214 | 8964 ft | 205 kts | 74° |
| 2026-05-04 15:02 | 32.49469 | -88.19602 | 8974 ft | 198 kts | 73° |
| 2026-05-04 15:02 | 32.49770 | -88.18008 | 8968 ft | 194 kts | 73° |
| 2026-05-04 15:03 | 32.50063 | -88.16457 | 9140 ft | 193 kts | 73° |
| 2026-05-04 15:03 | 32.50363 | -88.14861 | 9183 ft | 202 kts | 72° |
| 2026-05-04 15:03 | 32.50690 | -88.13181 | 9026 ft | 211 kts | 74° |
| 2026-05-04 15:03 | 32.50989 | -88.11548 | 8977 ft | 204 kts | 73° |
| 2026-05-04 15:04 | 32.51285 | -88.09956 | 8935 ft | 199 kts | 73° |
| 2026-05-04 15:04 | 32.51573 | -88.08418 | 8969 ft | 188 kts | 73° |
| 2026-05-04 15:04 | 32.51858 | -88.06898 | 9003 ft | 190 kts | 73° |
| 2026-05-04 15:04 | 32.52153 | -88.05374 | 9132 ft | 189 kts | 73° |
| 2026-05-04 15:05 | 32.52440 | -88.03822 | 8999 ft | 193 kts | 73° |
| 2026-05-04 15:05 | 32.52723 | -88.02293 | 9066 ft | 188 kts | 73° |
| 2026-05-04 15:05 | 32.53012 | -88.00762 | 9046 ft | 191 kts | 72° |
| 2026-05-04 15:05 | 32.53303 | -87.99210 | 8995 ft | 191 kts | 73° |
| 2026-05-04 15:06 | 32.53588 | -87.97681 | 8972 ft | 188 kts | 73° |
| 2026-05-04 15:06 | 32.53868 | -87.96170 | 8980 ft | 193 kts | 73° |
| 2026-05-04 15:06 | 32.54157 | -87.94640 | 9065 ft | 191 kts | 73° |
| 2026-05-04 15:07 | 32.54742 | -87.91560 | 8968 ft | 194 kts | 72° |
| 2026-05-04 15:07 | 32.55033 | -87.90011 | 8936 ft | 197 kts | 73° |
| 2026-05-04 15:07 | 32.55322 | -87.88464 | 8974 ft | 192 kts | 73° |
| 2026-05-04 15:07 | 32.55610 | -87.86925 | 8924 ft | 202 kts | 74° |
| 2026-05-04 15:08 | 32.55901 | -87.85373 | 8962 ft | 197 kts | 73° |
| 2026-05-04 15:08 | 32.56195 | -87.83809 | 9065 ft | 187 kts | 73° |
| 2026-05-04 15:08 | 32.56485 | -87.82273 | 8972 ft | 188 kts | 72° |
| 2026-05-04 15:08 | 32.56766 | -87.80747 | 9017 ft | 192 kts | 73° |
| 2026-05-04 15:09 | 32.57065 | -87.79214 | 9046 ft | 191 kts | 73° |
| 2026-05-04 15:09 | 32.57348 | -87.77677 | 8940 ft | 187 kts | 73° |
| 2026-05-04 15:09 | 32.57628 | -87.76189 | 9039 ft | 183 kts | 72° |
| 2026-05-04 15:10 | 32.58181 | -87.73231 | 8980 ft | 182 kts | 73° |
| 2026-05-04 15:10 | 32.58453 | -87.71768 | 8960 ft | 181 kts | 73° |
| 2026-05-04 15:10 | 32.59016 | -87.68772 | 9156 ft | 191 kts | 73° |
| 2026-05-04 15:11 | 32.59311 | -87.67195 | 8919 ft | 199 kts | 73° |
| 2026-05-04 15:11 | 32.59616 | -87.65538 | 8661 ft | 204 kts | 73° |
| 2026-05-04 15:11 | 32.59926 | -87.63871 | 8442 ft | 208 kts | 75° |
| 2026-05-04 15:11 | 32.60239 | -87.62188 | 8209 ft | 209 kts | 73° |
| 2026-05-04 15:12 | 32.60556 | -87.60503 | 8087 ft | 208 kts | 73° |
| 2026-05-04 15:12 | 32.60867 | -87.58804 | 7933 ft | 210 kts | 73° |
| 2026-05-04 15:12 | 32.61177 | -87.57115 | 7649 ft | 202 kts | 74° |
| 2026-05-04 15:12 | 32.61460 | -87.55556 | 7357 ft | 187 kts | 73° |
| 2026-05-04 15:13 | 32.61733 | -87.54097 | 7190 ft | 177 kts | 73° |
| 2026-05-04 15:13 | 32.62004 | -87.52621 | 7097 ft | 182 kts | 73° |
| 2026-05-04 15:13 | 32.62279 | -87.51161 | 7000 ft | 182 kts | 73° |
| 2026-05-04 15:13 | 32.62549 | -87.49709 | 6936 ft | 178 kts | 73° |
| 2026-05-04 15:14 | 32.62811 | -87.48286 | 7005 ft | 183 kts | 73° |
| 2026-05-04 15:14 | 32.63102 | -87.46802 | 6939 ft | 181 kts | 77° |
| 2026-05-04 15:14 | 32.63385 | -87.45369 | 6988 ft | 179 kts | 81° |
| 2026-05-04 15:14 | 32.63643 | -87.43912 | 6991 ft | 179 kts | 81° |
| 2026-05-04 15:15 | 32.63900 | -87.42458 | 6993 ft | 180 kts | 80° |
| 2026-05-04 15:15 | 32.64168 | -87.41015 | 6994 ft | 180 kts | 80° |
| 2026-05-04 15:15 | 32.64430 | -87.39553 | 6994 ft | 181 kts | 80° |
| 2026-05-04 15:16 | 32.64969 | -87.36623 | 6994 ft | 181 kts | 81° |
| 2026-05-04 15:16 | 32.65242 | -87.35154 | 6993 ft | 181 kts | 81° |
| 2026-05-04 15:16 | 32.65776 | -87.32215 | 6990 ft | 182 kts | 81° |
| 2026-05-04 15:17 | 32.66047 | -87.30739 | 6991 ft | 182 kts | 81° |
| 2026-05-04 15:17 | 32.66586 | -87.27810 | 6992 ft | 183 kts | 81° |
| 2026-05-04 15:17 | 32.66855 | -87.26337 | 6988 ft | 183 kts | 81° |
| 2026-05-04 15:18 | 32.67124 | -87.24854 | 6989 ft | 183 kts | 81° |
| 2026-05-04 15:18 | 32.67393 | -87.23380 | 6990 ft | 183 kts | 81° |
| 2026-05-04 15:18 | 32.67662 | -87.21915 | 6990 ft | 183 kts | 81° |
| 2026-05-04 15:19 | 32.68198 | -87.18967 | 6989 ft | 183 kts | 80° |
| 2026-05-04 15:19 | 32.68467 | -87.17477 | 6990 ft | 183 kts | 79° |
| 2026-05-04 15:19 | 32.69011 | -87.14512 | 6990 ft | 183 kts | 81° |
| 2026-05-04 15:20 | 32.69282 | -87.13015 | 6989 ft | 183 kts | 80° |
| 2026-05-04 15:20 | 32.69552 | -87.11553 | 6991 ft | 183 kts | 81° |
| 2026-05-04 15:20 | 32.69820 | -87.10070 | 6991 ft | 182 kts | 82° |
| 2026-05-04 15:20 | 32.70077 | -87.08611 | 6989 ft | 183 kts | 80° |
| 2026-05-04 15:21 | 32.70344 | -87.07123 | 6990 ft | 183 kts | 79° |
| 2026-05-04 15:21 | 32.70617 | -87.05654 | 6992 ft | 183 kts | 81° |
| 2026-05-04 15:21 | 32.71149 | -87.02688 | 6991 ft | 183 kts | 81° |
| 2026-05-04 15:22 | 32.71421 | -87.01208 | 6989 ft | 183 kts | 80° |
| 2026-05-04 15:22 | 32.71689 | -86.99738 | 6991 ft | 183 kts | 80° |
| 2026-05-04 15:22 | 32.72222 | -86.96770 | 6991 ft | 183 kts | 81° |
| 2026-05-04 15:23 | 32.72487 | -86.95298 | 6991 ft | 183 kts | 81° |
| 2026-05-04 15:23 | 32.72752 | -86.93806 | 6991 ft | 184 kts | 80° |
| 2026-05-04 15:23 | 32.73020 | -86.92316 | 6991 ft | 184 kts | 79° |
| 2026-05-04 15:23 | 32.73292 | -86.90845 | 6994 ft | 184 kts | 81° |
| 2026-05-04 15:24 | 32.73824 | -86.87874 | 6990 ft | 183 kts | 80° |
| 2026-05-04 15:24 | 32.74352 | -86.84920 | 6991 ft | 183 kts | 81° |
| 2026-05-04 15:25 | 32.74618 | -86.83444 | 6992 ft | 183 kts | 81° |
| 2026-05-04 15:25 | 32.74883 | -86.81966 | 6991 ft | 183 kts | 81° |
| 2026-05-04 15:25 | 32.75144 | -86.80484 | 6992 ft | 183 kts | 80° |
| 2026-05-04 15:26 | 32.75679 | -86.77507 | 6994 ft | 184 kts | 80° |
| 2026-05-04 15:26 | 32.75940 | -86.76037 | 6991 ft | 184 kts | 80° |
| 2026-05-04 15:26 | 32.76475 | -86.73063 | 6992 ft | 184 kts | 81° |
| 2026-05-04 15:27 | 32.76741 | -86.71568 | 6992 ft | 184 kts | 81° |
| 2026-05-04 15:27 | 32.77264 | -86.68610 | 6993 ft | 184 kts | 81° |
| 2026-05-04 15:28 | 32.77795 | -86.65640 | 6990 ft | 184 kts | 80° |
| 2026-05-04 15:28 | 32.78062 | -86.64144 | 6994 ft | 183 kts | 82° |
| 2026-05-04 15:28 | 32.78583 | -86.61180 | 6993 ft | 183 kts | 81° |
| 2026-05-04 15:29 | 32.78843 | -86.59714 | 6993 ft | 183 kts | 81° |
| 2026-05-04 15:30 | 32.79895 | -86.53760 | 6998 ft | 185 kts | 79° |
| 2026-05-04 15:30 | 32.80691 | -86.49252 | 6998 ft | 185 kts | 79° |
| 2026-05-04 15:31 | 32.81218 | -86.46265 | 6998 ft | 186 kts | 79° |
| 2026-05-04 15:31 | 32.81485 | -86.44746 | 6998 ft | 186 kts | 79° |
| 2026-05-04 15:32 | 32.82273 | -86.40256 | 6998 ft | 186 kts | 79° |
| 2026-05-04 15:32 | 32.82803 | -86.37230 | 6998 ft | 186 kts | 79° |
| 2026-05-04 15:33 | 32.83330 | -86.34222 | 6995 ft | 186 kts | 80° |
| 2026-05-04 15:34 | 32.84116 | -86.29721 | 6994 ft | 185 kts | 80° |
| 2026-05-04 15:34 | 32.84378 | -86.28221 | 6994 ft | 185 kts | 80° |
| 2026-05-04 15:34 | 32.84898 | -86.25233 | 6994 ft | 185 kts | 80° |
| 2026-05-04 15:35 | 32.85419 | -86.22237 | 6995 ft | 185 kts | 80° |
| 2026-05-04 15:35 | 32.85679 | -86.20742 | 6995 ft | 185 kts | 80° |
| 2026-05-04 15:35 | 32.85942 | -86.19231 | 6995 ft | 185 kts | 80° |
| 2026-05-04 15:36 | 32.86457 | -86.16257 | 6995 ft | 185 kts | 80° |
| 2026-05-04 15:36 | 32.86716 | -86.14759 | 6995 ft | 185 kts | 80° |
| 2026-05-04 15:36 | 32.86976 | -86.13261 | 6995 ft | 185 kts | 80° |
| 2026-05-04 15:37 | 32.87237 | -86.11752 | 6995 ft | 185 kts | 80° |
| 2026-05-04 15:37 | 32.87497 | -86.10250 | 6995 ft | 185 kts | 80° |
| 2026-05-04 15:37 | 32.87756 | -86.08751 | 6995 ft | 185 kts | 80° |
| 2026-05-04 15:37 | 32.88014 | -86.07256 | 6996 ft | 185 kts | 80° |
| 2026-05-04 15:38 | 32.88270 | -86.05771 | 6995 ft | 185 kts | 80° |
| 2026-05-04 15:38 | 32.88529 | -86.04265 | 6996 ft | 185 kts | 80° |
| 2026-05-04 15:38 | 32.88787 | -86.02770 | 6996 ft | 185 kts | 80° |
| 2026-05-04 15:38 | 32.89044 | -86.01273 | 6996 ft | 185 kts | 80° |
| 2026-05-04 15:39 | 32.89301 | -85.99777 | 6996 ft | 185 kts | 80° |
| 2026-05-04 15:39 | 32.89562 | -85.98257 | 6996 ft | 185 kts | 80° |
| 2026-05-04 15:39 | 32.90074 | -85.95277 | 6996 ft | 185 kts | 80° |
| 2026-05-04 15:40 | 32.90331 | -85.93775 | 6996 ft | 185 kts | 80° |
| 2026-05-04 15:40 | 32.90590 | -85.92265 | 6996 ft | 185 kts | 80° |
| 2026-05-04 15:40 | 32.90847 | -85.90763 | 6996 ft | 185 kts | 80° |
| 2026-05-04 15:40 | 32.91103 | -85.89265 | 6996 ft | 185 kts | 80° |
| 2026-05-04 15:41 | 32.91359 | -85.87771 | 6996 ft | 185 kts | 80° |
| 2026-05-04 15:41 | 32.91618 | -85.86253 | 6997 ft | 185 kts | 80° |
| 2026-05-04 15:41 | 32.91874 | -85.84751 | 6996 ft | 185 kts | 80° |
| 2026-05-04 15:41 | 32.92128 | -85.83259 | 6997 ft | 185 kts | 80° |
| 2026-05-04 15:42 | 32.92384 | -85.81761 | 6997 ft | 185 kts | 80° |
| 2026-05-04 15:42 | 32.92641 | -85.80246 | 6997 ft | 185 kts | 80° |
| 2026-05-04 15:42 | 32.92896 | -85.78748 | 6997 ft | 185 kts | 80° |
| 2026-05-04 15:42 | 32.93153 | -85.77241 | 6997 ft | 185 kts | 80° |
| 2026-05-04 15:43 | 32.93407 | -85.75742 | 6997 ft | 185 kts | 80° |
| 2026-05-04 15:43 | 32.93664 | -85.74230 | 6997 ft | 185 kts | 80° |
| 2026-05-04 15:43 | 32.93919 | -85.72723 | 6997 ft | 185 kts | 80° |
| 2026-05-04 15:43 | 32.94173 | -85.71228 | 6997 ft | 185 kts | 80° |
| 2026-05-04 15:44 | 32.94429 | -85.69717 | 6997 ft | 185 kts | 80° |
| 2026-05-04 15:44 | 32.94685 | -85.68205 | 6997 ft | 185 kts | 80° |
| 2026-05-04 15:44 | 32.94918 | -85.66703 | 6899 ft | 188 kts | 75° |
| 2026-05-04 15:44 | 32.95176 | -85.65192 | 6888 ft | 186 kts | 74° |
| 2026-05-04 15:45 | 32.95433 | -85.63698 | 6880 ft | 184 kts | 74° |
| 2026-05-04 15:45 | 32.95686 | -85.62206 | 6870 ft | 184 kts | 74° |
| 2026-05-04 15:45 | 32.95943 | -85.60716 | 6866 ft | 181 kts | 74° |
| 2026-05-04 15:45 | 32.96189 | -85.59260 | 6862 ft | 178 kts | 74° |
| 2026-05-04 15:46 | 32.96430 | -85.57834 | 6861 ft | 176 kts | 74° |
| 2026-05-04 15:46 | 32.96672 | -85.56400 | 6953 ft | 176 kts | 74° |
| 2026-05-04 15:46 | 32.96915 | -85.54940 | 6930 ft | 179 kts | 75° |
| 2026-05-04 15:46 | 32.97163 | -85.53477 | 6876 ft | 180 kts | 74° |
| 2026-05-04 15:47 | 32.97406 | -85.52022 | 6889 ft | 180 kts | 74° |
| 2026-05-04 15:47 | 32.97654 | -85.50558 | 6865 ft | 179 kts | 74° |
| 2026-05-04 15:47 | 32.97896 | -85.49119 | 6874 ft | 180 kts | 74° |
| 2026-05-04 15:47 | 32.98146 | -85.47633 | 6948 ft | 182 kts | 74° |
| 2026-05-04 15:48 | 32.98397 | -85.46134 | 6891 ft | 184 kts | 74° |
| 2026-05-04 15:48 | 32.98642 | -85.44663 | 6878 ft | 183 kts | 75° |
| 2026-05-04 15:48 | 32.99131 | -85.41720 | 6861 ft | 178 kts | 74° |
| 2026-05-04 15:49 | 32.99368 | -85.40295 | 6879 ft | 176 kts | 74° |
| 2026-05-04 15:49 | 32.99609 | -85.38856 | 6863 ft | 176 kts | 74° |
| 2026-05-04 15:49 | 32.99849 | -85.37434 | 6890 ft | 174 kts | 73° |
| 2026-05-04 15:49 | 33.00085 | -85.36007 | 6866 ft | 175 kts | 74° |
| 2026-05-04 15:50 | 33.00324 | -85.34573 | 6890 ft | 175 kts | 74° |
| 2026-05-04 15:50 | 33.00561 | -85.33147 | 6866 ft | 175 kts | 75° |
| 2026-05-04 15:50 | 33.00800 | -85.31727 | 6894 ft | 174 kts | 75° |
| 2026-05-04 15:50 | 33.01028 | -85.30307 | 6928 ft | 174 kts | 75° |
| 2026-05-04 15:51 | 33.01271 | -85.28867 | 6867 ft | 177 kts | 75° |
| 2026-05-04 15:51 | 33.01508 | -85.27437 | 6861 ft | 176 kts | 75° |
| 2026-05-04 15:51 | 33.01744 | -85.26002 | 6869 ft | 177 kts | 75° |
| 2026-05-04 15:51 | 33.01979 | -85.24576 | 6886 ft | 176 kts | 76° |
| 2026-05-04 15:52 | 33.02226 | -85.23150 | 6872 ft | 176 kts | 70° |
| 2026-05-04 15:52 | 33.02834 | -85.21932 | 6896 ft | 171 kts | 48° |
| 2026-05-04 15:52 | 33.03581 | -85.20818 | 6866 ft | 170 kts | 45° |
| 2026-05-04 15:52 | 33.04345 | -85.19756 | 6861 ft | 168 kts | 44° |
| 2026-05-04 15:53 | 33.05115 | -85.18716 | 6859 ft | 166 kts | 43° |
| 2026-05-04 15:53 | 33.05888 | -85.17693 | 6873 ft | 169 kts | 43° |
| 2026-05-04 15:53 | 33.06668 | -85.16668 | 6936 ft | 171 kts | 42° |
| 2026-05-04 15:53 | 33.07482 | -85.15607 | 6900 ft | 173 kts | 43° |
| 2026-05-04 15:54 | 33.08289 | -85.14553 | 6864 ft | 171 kts | 43° |
| 2026-05-04 15:54 | 33.09088 | -85.13513 | 6889 ft | 169 kts | 42° |
| 2026-05-04 15:54 | 33.09880 | -85.12480 | 6880 ft | 169 kts | 42° |
| 2026-05-04 15:54 | 33.10687 | -85.11436 | 6865 ft | 169 kts | 42° |
| 2026-05-04 15:55 | 33.11480 | -85.10407 | 6863 ft | 167 kts | 42° |
| 2026-05-04 15:55 | 33.12270 | -85.09383 | 6866 ft | 167 kts | 42° |
| 2026-05-04 15:55 | 33.13045 | -85.08379 | 6853 ft | 165 kts | 42° |
| 2026-05-04 15:55 | 33.13821 | -85.07370 | 6961 ft | 165 kts | 42° |
| 2026-05-04 15:56 | 33.14623 | -85.06330 | 6895 ft | 172 kts | 42° |
| 2026-05-04 15:56 | 33.15440 | -85.05270 | 6868 ft | 171 kts | 42° |
| 2026-05-04 15:56 | 33.16251 | -85.04216 | 6915 ft | 172 kts | 42° |
| 2026-05-04 15:56 | 33.17065 | -85.03159 | 6874 ft | 172 kts | 42° |
| 2026-05-04 15:57 | 33.17868 | -85.02114 | 6883 ft | 171 kts | 42° |
| 2026-05-04 15:57 | 33.18667 | -85.01074 | 6870 ft | 170 kts | 42° |
| 2026-05-04 15:57 | 33.19474 | -85.00024 | 6869 ft | 169 kts | 42° |
| 2026-05-04 15:57 | 33.20261 | -84.99000 | 6866 ft | 168 kts | 42° |
| 2026-05-04 15:58 | 33.21046 | -84.97977 | 6863 ft | 167 kts | 42° |
| 2026-05-04 15:58 | 33.21831 | -84.96957 | 6863 ft | 166 kts | 42° |
| 2026-05-04 15:58 | 33.22619 | -84.95932 | 6864 ft | 166 kts | 42° |
| 2026-05-04 15:58 | 33.23392 | -84.94926 | 6880 ft | 166 kts | 42° |
| 2026-05-04 15:59 | 33.24181 | -84.93900 | 6881 ft | 168 kts | 42° |
| 2026-05-04 15:59 | 33.24972 | -84.92868 | 6867 ft | 168 kts | 42° |
| 2026-05-04 15:59 | 33.25751 | -84.91847 | 6930 ft | 163 kts | 41° |
| 2026-05-04 15:59 | 33.26511 | -84.90848 | 7004 ft | 160 kts | 40° |
| 2026-05-04 16:00 | 33.27261 | -84.89875 | 7016 ft | 161 kts | 40° |
| 2026-05-04 16:00 | 33.28032 | -84.88873 | 7019 ft | 163 kts | 40° |
| 2026-05-04 16:00 | 33.28804 | -84.87869 | 7019 ft | 164 kts | 41° |
| 2026-05-04 16:00 | 33.29568 | -84.86874 | 7019 ft | 165 kts | 41° |
| 2026-05-04 16:01 | 33.30342 | -84.85865 | 7018 ft | 165 kts | 41° |
| 2026-05-04 16:01 | 33.31117 | -84.84853 | 7018 ft | 165 kts | 41° |
| 2026-05-04 16:01 | 33.31908 | -84.83840 | 7017 ft | 165 kts | 38° |
| 2026-05-04 16:01 | 33.32726 | -84.82873 | 7018 ft | 165 kts | 38° |
| 2026-05-04 16:02 | 33.33549 | -84.81913 | 7018 ft | 165 kts | 37° |
| 2026-05-04 16:02 | 33.34374 | -84.80956 | 7018 ft | 165 kts | 37° |
| 2026-05-04 16:02 | 33.36021 | -84.79041 | 7018 ft | 165 kts | 37° |
| 2026-05-04 16:03 | 33.36853 | -84.78073 | 7018 ft | 165 kts | 37° |
| 2026-05-04 16:03 | 33.37670 | -84.77124 | 7018 ft | 165 kts | 37° |
| 2026-05-04 16:03 | 33.38495 | -84.76164 | 7018 ft | 165 kts | 37° |
| 2026-05-04 16:03 | 33.39319 | -84.75205 | 7018 ft | 165 kts | 37° |
| 2026-05-04 16:04 | 33.40143 | -84.74247 | 7018 ft | 165 kts | 37° |
| 2026-05-04 16:04 | 33.41785 | -84.72337 | 6966 ft | 169 kts | 38° |
| 2026-05-04 16:04 | 33.42652 | -84.71331 | 6721 ft | 178 kts | 38° |
| 2026-05-04 16:05 | 33.43549 | -84.70286 | 6483 ft | 183 kts | 39° |
| 2026-05-04 16:05 | 33.44471 | -84.69210 | 6239 ft | 186 kts | 39° |
| 2026-05-04 16:05 | 33.46330 | -84.67039 | 5748 ft | 188 kts | 40° |
| 2026-05-04 16:06 | 33.47267 | -84.65946 | 5500 ft | 188 kts | 40° |
| 2026-05-04 16:06 | 33.50062 | -84.62683 | 4755 ft | 187 kts | 40° |
| 2026-05-04 16:07 | 33.50331 | -84.62369 | 4682 ft | 186 kts | 41° |
| 2026-05-04 16:07 | 33.53049 | -84.59113 | 4031 ft | 182 kts | 53° |
| 2026-05-04 16:08 | 33.53491 | -84.57732 | 4017 ft | 176 kts | 75° |
| 2026-05-04 16:08 | 33.53729 | -84.53500 | 4002 ft | 166 kts | 72° |
| 2026-05-04 16:09 | 33.54465 | -84.50902 | 4018 ft | 164 kts | 67° |
| 2026-05-04 16:09 | 33.55320 | -84.48088 | 3316 ft | 192 kts | 67° |
| 2026-05-04 16:10 | 33.56553 | -84.45230 | 2832 ft | 187 kts | 50° |
| 2026-05-04 16:11 | 33.58851 | -84.41755 | 2804 ft | 173 kts | 50° |
| 2026-05-04 16:11 | 33.59631 | -84.40607 | 2562 ft | 185 kts | 46° |
| 2026-05-04 16:12 | 33.62989 | -84.38723 | 1807 ft | 156 kts | 2° |
| 2026-05-04 16:12 | 33.64932 | -84.39507 | 1271 ft | 91 kts | 276° |
| 2026-05-04 16:13 | 33.64951 | -84.40983 | 1029 ft | 89 kts | 271° |
| 2026-05-04 16:13 | 33.64956 | -84.42170 | 978 ft | 36 kts | 258° |
| 2026-05-04 16:14 | 33.65065 | -84.42416 | 983 ft | 21 kts | 270° |
| 2026-05-04 16:14 | 33.65236 | -84.42544 | 987 ft | 18 kts | 84° |
| 2026-05-04 16:15 | 33.65234 | -84.42528 | 986 ft | 0 kts | 100° |